SAS58T EKCH-EDDC
Flight info
| Callsign | SAS58T |
|---|---|
| Flight time | 0h 54m |
| Altitude | 34000 |
| Route | SIMEG M736 SALLO M44 KOGIM M725 KOBUS P31 GARKI |
| Aircraft | A320/M-SDE3FGHIRWY/LB1 |
Departure
| Time | 2026-05-07 18:25 |
|---|---|
| Airport | Copenhagen Kastrup Airport (EKCH) |
Arrival
| Time | 2026-05-07 19:19 |
|---|---|
| Airport | Dresden Airport (EDDC) |
| Time | Latitude | Longitude | Altitude | Speed | Heading |
|---|---|---|---|---|---|
| 2026-05-07 18:02 | 55.62703 | 12.64166 | 24 ft | 0 kts | 32° |
| 2026-05-07 18:12 | 55.62701 | 12.64164 | 24 ft | 2 kts | 32° |
| 2026-05-07 18:12 | 55.62687 | 12.64147 | 26 ft | 2 kts | 32° |
| 2026-05-07 18:13 | 55.62672 | 12.64131 | 26 ft | 2 kts | 32° |
| 2026-05-07 18:13 | 55.62657 | 12.64115 | 26 ft | 2 kts | 58° |
| 2026-05-07 18:13 | 55.62652 | 12.64088 | 26 ft | 2 kts | 79° |
| 2026-05-07 18:13 | 55.62654 | 12.64060 | 25 ft | 2 kts | 124° |
| 2026-05-07 18:14 | 55.62655 | 12.64059 | 25 ft | 0 kts | 124° |
| 2026-05-07 18:17 | 55.62647 | 12.64079 | 24 ft | 5 kts | 124° |
| 2026-05-07 18:18 | 55.62618 | 12.64157 | 24 ft | 9 kts | 122° |
| 2026-05-07 18:18 | 55.62558 | 12.64202 | 24 ft | 12 kts | 191° |
| 2026-05-07 18:18 | 55.62494 | 12.64287 | 24 ft | 14 kts | 126° |
| 2026-05-07 18:18 | 55.62428 | 12.64437 | 24 ft | 17 kts | 128° |
| 2026-05-07 18:19 | 55.62357 | 12.64622 | 24 ft | 17 kts | 123° |
| 2026-05-07 18:19 | 55.62295 | 12.64791 | 26 ft | 18 kts | 123° |
| 2026-05-07 18:19 | 55.62229 | 12.64969 | 24 ft | 16 kts | 123° |
| 2026-05-07 18:19 | 55.62179 | 12.65094 | 24 ft | 10 kts | 141° |
| 2026-05-07 18:20 | 55.62123 | 12.65080 | 26 ft | 8 kts | 213° |
| 2026-05-07 18:20 | 55.62104 | 12.65058 | 24 ft | 0 kts | 213° |
| 2026-05-07 18:21 | 55.62104 | 12.65057 | 24 ft | 1 kts | 213° |
| 2026-05-07 18:21 | 55.62090 | 12.65041 | 25 ft | 4 kts | 213° |
| 2026-05-07 18:21 | 55.62046 | 12.64969 | 24 ft | 11 kts | 246° |
| 2026-05-07 18:22 | 55.62073 | 12.64844 | 25 ft | 13 kts | 303° |
| 2026-05-07 18:22 | 55.62108 | 12.64751 | 26 ft | 12 kts | 303° |
| 2026-05-07 18:22 | 55.62054 | 12.64591 | 23 ft | 15 kts | 213° |
| 2026-05-07 18:22 | 55.61969 | 12.64471 | 24 ft | 16 kts | 239° |
| 2026-05-07 18:23 | 55.61940 | 12.64269 | 25 ft | 17 kts | 260° |
| 2026-05-07 18:23 | 55.61911 | 12.64107 | 24 ft | 14 kts | 224° |
| 2026-05-07 18:23 | 55.61816 | 12.64072 | 24 ft | 14 kts | 176° |
| 2026-05-07 18:23 | 55.61747 | 12.64083 | 26 ft | 7 kts | 175° |
| 2026-05-07 18:24 | 55.61692 | 12.64091 | 28 ft | 8 kts | 175° |
| 2026-05-07 18:24 | 55.61639 | 12.64084 | 27 ft | 8 kts | 202° |
| 2026-05-07 18:24 | 55.61581 | 12.64002 | 32 ft | 21 kts | 222° |
| 2026-05-07 18:24 | 55.61285 | 12.63541 | 26 ft | 92 kts | 221° |
| 2026-05-07 18:25 | 55.60652 | 12.62569 | 26 ft | 145 kts | 221° |
| 2026-05-07 18:25 | 55.59808 | 12.61319 | 362 ft | 161 kts | 220° |
| 2026-05-07 18:25 | 55.58955 | 12.60025 | 1048 ft | 161 kts | 222° |
| 2026-05-07 18:25 | 55.58098 | 12.58693 | 1518 ft | 174 kts | 223° |
| 2026-05-07 18:26 | 55.57131 | 12.57182 | 1811 ft | 197 kts | 223° |
| 2026-05-07 18:26 | 55.55949 | 12.55684 | 2090 ft | 223 kts | 203° |
| 2026-05-07 18:26 | 55.54345 | 12.55336 | 2464 ft | 248 kts | 167° |
| 2026-05-07 18:26 | 55.52829 | 12.56885 | 3065 ft | 261 kts | 128° |
| 2026-05-07 18:27 | 55.51830 | 12.59575 | 3967 ft | 264 kts | 117° |
| 2026-05-07 18:27 | 55.50979 | 12.62434 | 4933 ft | 267 kts | 114° |
| 2026-05-07 18:27 | 55.50160 | 12.65387 | 5861 ft | 270 kts | 114° |
| 2026-05-07 18:27 | 55.49613 | 12.67381 | 6507 ft | 272 kts | 114° |
| 2026-05-07 18:28 | 55.48497 | 12.71388 | 7702 ft | 275 kts | 115° |
| 2026-05-07 18:28 | 55.47629 | 12.74423 | 8600 ft | 278 kts | 115° |
| 2026-05-07 18:28 | 55.46741 | 12.77480 | 9491 ft | 280 kts | 116° |
| 2026-05-07 18:28 | 55.45850 | 12.80516 | 10313 ft | 284 kts | 116° |
| 2026-05-07 18:29 | 55.44899 | 12.83742 | 10616 ft | 307 kts | 116° |
| 2026-05-07 18:29 | 55.43872 | 12.87221 | 10862 ft | 328 kts | 116° |
| 2026-05-07 18:29 | 55.42810 | 12.90808 | 11407 ft | 337 kts | 116° |
| 2026-05-07 18:29 | 55.41715 | 12.94503 | 12063 ft | 343 kts | 117° |
| 2026-05-07 18:30 | 55.40594 | 12.98279 | 12740 ft | 348 kts | 117° |
| 2026-05-07 18:30 | 55.39462 | 13.02080 | 13416 ft | 353 kts | 116° |
| 2026-05-07 18:30 | 55.38325 | 13.05887 | 14048 ft | 358 kts | 117° |
| 2026-05-07 18:30 | 55.37156 | 13.09797 | 14654 ft | 363 kts | 117° |
| 2026-05-07 18:31 | 55.35971 | 13.13752 | 15256 ft | 366 kts | 117° |
| 2026-05-07 18:31 | 55.34779 | 13.17730 | 15846 ft | 370 kts | 117° |
| 2026-05-07 18:31 | 55.33572 | 13.21754 | 16437 ft | 374 kts | 118° |
| 2026-05-07 18:31 | 55.32346 | 13.25833 | 17032 ft | 378 kts | 118° |
| 2026-05-07 18:32 | 55.31126 | 13.29883 | 17665 ft | 381 kts | 118° |
| 2026-05-07 18:32 | 55.29875 | 13.34025 | 18304 ft | 384 kts | 118° |
| 2026-05-07 18:32 | 55.28608 | 13.38206 | 18872 ft | 387 kts | 120° |
| 2026-05-07 18:32 | 55.27053 | 13.42011 | 19448 ft | 389 kts | 134° |
| 2026-05-07 18:33 | 55.24951 | 13.45048 | 20031 ft | 391 kts | 149° |
| 2026-05-07 18:33 | 55.22462 | 13.47024 | 20606 ft | 393 kts | 165° |
| 2026-05-07 18:33 | 55.19796 | 13.47804 | 21161 ft | 394 kts | 179° |
| 2026-05-07 18:33 | 55.17064 | 13.47377 | 21710 ft | 395 kts | 192° |
| 2026-05-07 18:34 | 55.14340 | 13.46435 | 22259 ft | 398 kts | 192° |
| 2026-05-07 18:34 | 55.11607 | 13.45480 | 22790 ft | 401 kts | 192° |
| 2026-05-07 18:34 | 55.08878 | 13.44530 | 23309 ft | 404 kts | 192° |
| 2026-05-07 18:34 | 55.06106 | 13.43573 | 23800 ft | 407 kts | 192° |
| 2026-05-07 18:35 | 55.03308 | 13.42608 | 24201 ft | 410 kts | 192° |
| 2026-05-07 18:35 | 55.00494 | 13.41640 | 24656 ft | 412 kts | 192° |
| 2026-05-07 18:35 | 54.97705 | 13.40679 | 25074 ft | 414 kts | 192° |
| 2026-05-07 18:35 | 54.94861 | 13.39701 | 25481 ft | 416 kts | 192° |
| 2026-05-07 18:36 | 54.91974 | 13.39096 | 25869 ft | 420 kts | 182° |
| 2026-05-07 18:36 | 54.89035 | 13.39323 | 26255 ft | 424 kts | 173° |
| 2026-05-07 18:36 | 54.87105 | 13.39844 | 26507 ft | 425 kts | 172° |
| 2026-05-07 18:36 | 54.83205 | 13.40916 | 27018 ft | 428 kts | 172° |
| 2026-05-07 18:37 | 54.81227 | 13.41451 | 27282 ft | 430 kts | 172° |
| 2026-05-07 18:37 | 54.78243 | 13.42250 | 27659 ft | 432 kts | 172° |
| 2026-05-07 18:37 | 54.75281 | 13.43038 | 28047 ft | 434 kts | 172° |
| 2026-05-07 18:37 | 54.72275 | 13.43835 | 28434 ft | 436 kts | 172° |
| 2026-05-07 18:38 | 54.69266 | 13.44635 | 28807 ft | 438 kts | 172° |
| 2026-05-07 18:38 | 54.66244 | 13.45437 | 29169 ft | 440 kts | 172° |
| 2026-05-07 18:38 | 54.63237 | 13.46236 | 29528 ft | 443 kts | 172° |
| 2026-05-07 18:38 | 54.60179 | 13.47050 | 29881 ft | 445 kts | 172° |
| 2026-05-07 18:39 | 54.57095 | 13.47872 | 30216 ft | 447 kts | 172° |
| 2026-05-07 18:39 | 54.54031 | 13.48690 | 30513 ft | 449 kts | 171° |
| 2026-05-07 18:39 | 54.50938 | 13.49515 | 30917 ft | 448 kts | 171° |
| 2026-05-07 18:39 | 54.47893 | 13.50319 | 31343 ft | 446 kts | 172° |
| 2026-05-07 18:40 | 54.44823 | 13.51108 | 31854 ft | 443 kts | 172° |
| 2026-05-07 18:40 | 54.41773 | 13.51876 | 32320 ft | 441 kts | 172° |
| 2026-05-07 18:40 | 54.38720 | 13.52638 | 32745 ft | 440 kts | 172° |
| 2026-05-07 18:40 | 54.35725 | 13.53385 | 33173 ft | 440 kts | 172° |
| 2026-05-07 18:41 | 54.32694 | 13.54140 | 33551 ft | 441 kts | 172° |
| 2026-05-07 18:41 | 54.29651 | 13.54903 | 33908 ft | 441 kts | 172° |
| 2026-05-07 18:41 | 54.26588 | 13.55692 | 34101 ft | 443 kts | 171° |
| 2026-05-07 18:42 | 54.20494 | 13.57297 | 34134 ft | 442 kts | 171° |
| 2026-05-07 18:42 | 54.14422 | 13.58899 | 34130 ft | 442 kts | 171° |
| 2026-05-07 18:43 | 54.08376 | 13.60475 | 34129 ft | 441 kts | 171° |
| 2026-05-07 18:43 | 54.02278 | 13.62053 | 34129 ft | 441 kts | 171° |
| 2026-05-07 18:44 | 53.96223 | 13.63616 | 34130 ft | 442 kts | 172° |
| 2026-05-07 18:44 | 53.90134 | 13.65250 | 34139 ft | 441 kts | 170° |
| 2026-05-07 18:45 | 53.84163 | 13.67366 | 34139 ft | 441 kts | 167° |
| 2026-05-07 18:45 | 53.78159 | 13.69688 | 34138 ft | 441 kts | 168° |
| 2026-05-07 18:46 | 53.72178 | 13.71901 | 34144 ft | 439 kts | 168° |
| 2026-05-07 18:46 | 53.66207 | 13.74023 | 34139 ft | 439 kts | 169° |
| 2026-05-07 18:47 | 53.60226 | 13.76142 | 34138 ft | 438 kts | 169° |
| 2026-05-07 18:47 | 53.54273 | 13.78259 | 34134 ft | 438 kts | 169° |
| 2026-05-07 18:48 | 53.48329 | 13.80371 | 34131 ft | 437 kts | 169° |
| 2026-05-07 18:48 | 53.42349 | 13.82488 | 34127 ft | 438 kts | 169° |
| 2026-05-07 18:49 | 53.36407 | 13.84583 | 34126 ft | 438 kts | 169° |
| 2026-05-07 18:49 | 53.30460 | 13.86680 | 34123 ft | 438 kts | 169° |
| 2026-05-07 18:50 | 53.24485 | 13.88775 | 34118 ft | 438 kts | 169° |
| 2026-05-07 18:50 | 53.18507 | 13.90854 | 34118 ft | 437 kts | 170° |
| 2026-05-07 18:51 | 53.12508 | 13.92117 | 34107 ft | 437 kts | 174° |
| 2026-05-07 18:51 | 53.06467 | 13.93285 | 34107 ft | 437 kts | 174° |
| 2026-05-07 18:52 | 53.00422 | 13.94455 | 34107 ft | 437 kts | 174° |
| 2026-05-07 18:52 | 52.94365 | 13.95616 | 33478 ft | 438 kts | 174° |
| 2026-05-07 18:52 | 52.91350 | 13.96192 | 32935 ft | 438 kts | 174° |
| 2026-05-07 18:53 | 52.88291 | 13.96798 | 32406 ft | 440 kts | 173° |
| 2026-05-07 18:53 | 52.85281 | 13.97433 | 31883 ft | 442 kts | 172° |
| 2026-05-07 18:53 | 52.82224 | 13.98098 | 31368 ft | 441 kts | 172° |
| 2026-05-07 18:53 | 52.79175 | 13.98765 | 30863 ft | 439 kts | 172° |
| 2026-05-07 18:54 | 52.76144 | 13.99425 | 30361 ft | 436 kts | 172° |
| 2026-05-07 18:54 | 52.73174 | 14.00042 | 29821 ft | 434 kts | 174° |
| 2026-05-07 18:54 | 52.70158 | 13.99836 | 29239 ft | 431 kts | 189° |
| 2026-05-07 18:54 | 52.67245 | 13.98887 | 28683 ft | 428 kts | 191° |
| 2026-05-07 18:55 | 52.64324 | 13.97894 | 28121 ft | 425 kts | 191° |
| 2026-05-07 18:55 | 52.61435 | 13.96895 | 27582 ft | 422 kts | 192° |
| 2026-05-07 18:55 | 52.58576 | 13.95902 | 27050 ft | 418 kts | 192° |
| 2026-05-07 18:55 | 52.55734 | 13.94919 | 26528 ft | 415 kts | 192° |
| 2026-05-07 18:56 | 52.52917 | 13.93948 | 26016 ft | 412 kts | 192° |
| 2026-05-07 18:56 | 52.50150 | 13.93001 | 25520 ft | 409 kts | 192° |
| 2026-05-07 18:56 | 52.47366 | 13.92056 | 25026 ft | 407 kts | 192° |
| 2026-05-07 18:56 | 52.44597 | 13.91119 | 24541 ft | 404 kts | 192° |
| 2026-05-07 18:57 | 52.41823 | 13.90182 | 24064 ft | 402 kts | 192° |
| 2026-05-07 18:57 | 52.39101 | 13.89266 | 23584 ft | 401 kts | 192° |
| 2026-05-07 18:57 | 52.36366 | 13.88347 | 23026 ft | 399 kts | 192° |
| 2026-05-07 18:57 | 52.33672 | 13.87440 | 22483 ft | 398 kts | 192° |
| 2026-05-07 18:58 | 52.30956 | 13.86522 | 21946 ft | 397 kts | 192° |
| 2026-05-07 18:58 | 52.28239 | 13.85600 | 21415 ft | 396 kts | 192° |
| 2026-05-07 18:58 | 52.25576 | 13.84700 | 20894 ft | 394 kts | 192° |
| 2026-05-07 18:58 | 52.22889 | 13.83795 | 20386 ft | 392 kts | 192° |
| 2026-05-07 18:59 | 52.20219 | 13.82897 | 19884 ft | 390 kts | 192° |
| 2026-05-07 18:59 | 52.17569 | 13.82009 | 19387 ft | 387 kts | 192° |
| 2026-05-07 18:59 | 52.14952 | 13.81138 | 18903 ft | 384 kts | 192° |
| 2026-05-07 18:59 | 52.12331 | 13.80268 | 18422 ft | 381 kts | 192° |
| 2026-05-07 19:00 | 52.09743 | 13.79408 | 17877 ft | 377 kts | 192° |
| 2026-05-07 19:00 | 52.07173 | 13.78554 | 17336 ft | 374 kts | 192° |
| 2026-05-07 19:00 | 52.04663 | 13.77719 | 16811 ft | 370 kts | 192° |
| 2026-05-07 19:00 | 52.02154 | 13.76883 | 16292 ft | 366 kts | 192° |
| 2026-05-07 19:01 | 51.99669 | 13.76056 | 15779 ft | 363 kts | 192° |
| 2026-05-07 19:01 | 51.97199 | 13.75230 | 15278 ft | 359 kts | 192° |
| 2026-05-07 19:01 | 51.94762 | 13.74413 | 14785 ft | 356 kts | 192° |
| 2026-05-07 19:01 | 51.92377 | 13.73618 | 14303 ft | 352 kts | 192° |
| 2026-05-07 19:02 | 51.89974 | 13.72823 | 13817 ft | 349 kts | 191° |
| 2026-05-07 19:02 | 51.87622 | 13.72047 | 13284 ft | 346 kts | 191° |
| 2026-05-07 19:02 | 51.85265 | 13.71270 | 12748 ft | 343 kts | 192° |
| 2026-05-07 19:02 | 51.82916 | 13.70496 | 12223 ft | 341 kts | 191° |
| 2026-05-07 19:03 | 51.80628 | 13.69741 | 11716 ft | 338 kts | 191° |
| 2026-05-07 19:03 | 51.78320 | 13.68982 | 11210 ft | 336 kts | 192° |
| 2026-05-07 19:03 | 51.76029 | 13.68230 | 10719 ft | 334 kts | 191° |
| 2026-05-07 19:03 | 51.73761 | 13.67483 | 10239 ft | 331 kts | 192° |
| 2026-05-07 19:04 | 51.71559 | 13.66763 | 10072 ft | 320 kts | 191° |
| 2026-05-07 19:04 | 51.69425 | 13.66067 | 10077 ft | 303 kts | 191° |
| 2026-05-07 19:04 | 51.67408 | 13.65408 | 10083 ft | 288 kts | 191° |
| 2026-05-07 19:04 | 51.65448 | 13.64766 | 10084 ft | 286 kts | 191° |
| 2026-05-07 19:05 | 51.63524 | 13.64139 | 10078 ft | 285 kts | 193° |
| 2026-05-07 19:05 | 51.61568 | 13.63498 | 10080 ft | 285 kts | 192° |
| 2026-05-07 19:05 | 51.59624 | 13.62857 | 10083 ft | 285 kts | 193° |
| 2026-05-07 19:05 | 51.57678 | 13.62217 | 10080 ft | 285 kts | 193° |
| 2026-05-07 19:06 | 51.55736 | 13.61581 | 10078 ft | 285 kts | 192° |
| 2026-05-07 19:06 | 51.51869 | 13.60317 | 10079 ft | 285 kts | 193° |
| 2026-05-07 19:06 | 51.49910 | 13.59676 | 10079 ft | 286 kts | 192° |
| 2026-05-07 19:07 | 51.47951 | 13.59038 | 9944 ft | 285 kts | 192° |
| 2026-05-07 19:07 | 51.46029 | 13.58416 | 9679 ft | 281 kts | 192° |
| 2026-05-07 19:07 | 51.44116 | 13.57800 | 9410 ft | 280 kts | 192° |
| 2026-05-07 19:07 | 51.42207 | 13.57186 | 9147 ft | 278 kts | 192° |
| 2026-05-07 19:08 | 51.40309 | 13.56573 | 8886 ft | 277 kts | 192° |
| 2026-05-07 19:08 | 51.38439 | 13.55966 | 8625 ft | 277 kts | 192° |
| 2026-05-07 19:08 | 51.36547 | 13.55354 | 8366 ft | 276 kts | 192° |
| 2026-05-07 19:08 | 51.34662 | 13.54743 | 8112 ft | 275 kts | 192° |
| 2026-05-07 19:09 | 51.32781 | 13.54139 | 7844 ft | 275 kts | 192° |
| 2026-05-07 19:09 | 51.30928 | 13.53545 | 7587 ft | 274 kts | 192° |
| 2026-05-07 19:09 | 51.29057 | 13.52946 | 7321 ft | 273 kts | 193° |
| 2026-05-07 19:09 | 51.27193 | 13.52348 | 7024 ft | 272 kts | 192° |
| 2026-05-07 19:10 | 51.25339 | 13.51752 | 6723 ft | 271 kts | 193° |
| 2026-05-07 19:10 | 51.23513 | 13.51164 | 6430 ft | 270 kts | 193° |
| 2026-05-07 19:10 | 51.21669 | 13.50571 | 6066 ft | 270 kts | 193° |
| 2026-05-07 19:10 | 51.19827 | 13.49983 | 5703 ft | 270 kts | 193° |
| 2026-05-07 19:11 | 51.17983 | 13.49394 | 5344 ft | 270 kts | 193° |
| 2026-05-07 19:11 | 51.16125 | 13.48801 | 4985 ft | 269 kts | 193° |
| 2026-05-07 19:11 | 51.14299 | 13.48224 | 4624 ft | 269 kts | 192° |
| 2026-05-07 19:11 | 51.12482 | 13.47661 | 4260 ft | 264 kts | 192° |
| 2026-05-07 19:12 | 51.10711 | 13.47115 | 3996 ft | 249 kts | 192° |
| 2026-05-07 19:12 | 51.09060 | 13.46594 | 3994 ft | 238 kts | 192° |
| 2026-05-07 19:12 | 51.07456 | 13.46094 | 3990 ft | 237 kts | 192° |
| 2026-05-07 19:12 | 51.05840 | 13.45588 | 3988 ft | 236 kts | 192° |
| 2026-05-07 19:13 | 51.04222 | 13.45087 | 3992 ft | 236 kts | 192° |
| 2026-05-07 19:13 | 51.02593 | 13.44706 | 3988 ft | 236 kts | 179° |
| 2026-05-07 19:13 | 51.01031 | 13.45447 | 3992 ft | 240 kts | 147° |
| 2026-05-07 19:13 | 50.99748 | 13.47139 | 3984 ft | 238 kts | 136° |
| 2026-05-07 19:14 | 50.98686 | 13.49109 | 3989 ft | 233 kts | 115° |
| 2026-05-07 19:14 | 50.98376 | 13.51571 | 3983 ft | 227 kts | 83° |
| 2026-05-07 19:14 | 50.98630 | 13.54020 | 3988 ft | 227 kts | 76° |
| 2026-05-07 19:14 | 50.99059 | 13.56387 | 3981 ft | 218 kts | 62° |
| 2026-05-07 19:15 | 50.99931 | 13.58295 | 3972 ft | 213 kts | 40° |
| 2026-05-07 19:15 | 51.01041 | 13.59831 | 3765 ft | 210 kts | 37° |
| 2026-05-07 19:15 | 51.02149 | 13.61330 | 3504 ft | 204 kts | 39° |
| 2026-05-07 19:15 | 51.03189 | 13.62749 | 3241 ft | 192 kts | 39° |
| 2026-05-07 19:16 | 51.04184 | 13.64109 | 3000 ft | 184 kts | 39° |
| 2026-05-07 19:16 | 51.05121 | 13.65391 | 2730 ft | 173 kts | 40° |
| 2026-05-07 19:16 | 51.05999 | 13.66594 | 2497 ft | 163 kts | 39° |
| 2026-05-07 19:16 | 51.06832 | 13.67734 | 2277 ft | 152 kts | 39° |
| 2026-05-07 19:17 | 51.07606 | 13.68796 | 2105 ft | 142 kts | 39° |
| 2026-05-07 19:17 | 51.08336 | 13.69797 | 1903 ft | 139 kts | 39° |
| 2026-05-07 19:17 | 51.09061 | 13.70791 | 1718 ft | 137 kts | 38° |
| 2026-05-07 19:17 | 51.09786 | 13.71785 | 1501 ft | 137 kts | 40° |
| 2026-05-07 19:18 | 51.10509 | 13.72771 | 1294 ft | 136 kts | 40° |
| 2026-05-07 19:18 | 51.11221 | 13.73755 | 1117 ft | 135 kts | 40° |
| 2026-05-07 19:18 | 51.11923 | 13.74730 | 956 ft | 136 kts | 39° |
| 2026-05-07 19:18 | 51.12638 | 13.75702 | 783 ft | 134 kts | 39° |
| 2026-05-07 19:19 | 51.13271 | 13.76566 | 747 ft | 101 kts | 41° |
| 2026-05-07 19:19 | 51.13669 | 13.77122 | 731 ft | 52 kts | 40° |
| 2026-05-07 19:19 | 51.13844 | 13.77361 | 724 ft | 20 kts | 40° |
| 2026-05-07 19:19 | 51.13901 | 13.77504 | 721 ft | 13 kts | 108° |
| 2026-05-07 19:20 | 51.13844 | 13.77616 | 719 ft | 14 kts | 130° |
| 2026-05-07 19:20 | 51.13783 | 13.77723 | 712 ft | 10 kts | 149° |
| 2026-05-07 19:20 | 51.13734 | 13.77694 | 717 ft | 8 kts | 223° |
| 2026-05-07 19:20 | 51.13676 | 13.77611 | 719 ft | 13 kts | 220° |
| 2026-05-07 19:21 | 51.13629 | 13.77548 | 721 ft | 13 kts | 220° |
| 2026-05-07 19:21 | 51.13538 | 13.77422 | 725 ft | 13 kts | 221° |
| 2026-05-07 19:21 | 51.13491 | 13.77357 | 729 ft | 13 kts | 221° |
| 2026-05-07 19:21 | 51.13425 | 13.77266 | 733 ft | 12 kts | 220° |
| 2026-05-07 19:22 | 51.13367 | 13.77186 | 737 ft | 10 kts | 221° |
| 2026-05-07 19:22 | 51.13318 | 13.77118 | 741 ft | 8 kts | 221° |
| 2026-05-07 19:22 | 51.13270 | 13.77052 | 745 ft | 11 kts | 221° |
| 2026-05-07 19:22 | 51.13183 | 13.76932 | 745 ft | 22 kts | 220° |
| 2026-05-07 19:23 | 51.13066 | 13.76772 | 747 ft | 22 kts | 220° |
| 2026-05-07 19:23 | 51.12955 | 13.76619 | 752 ft | 21 kts | 221° |
| 2026-05-07 19:23 | 51.12861 | 13.76489 | 750 ft | 14 kts | 221° |
| 2026-05-07 19:23 | 51.12786 | 13.76468 | 752 ft | 13 kts | 140° |
| 2026-05-07 19:24 | 51.12723 | 13.76580 | 751 ft | 14 kts | 130° |
| 2026-05-07 19:24 | 51.12664 | 13.76691 | 751 ft | 11 kts | 130° |
| 2026-05-07 19:24 | 51.12627 | 13.76741 | 752 ft | 6 kts | 173° |
| 2026-05-07 19:24 | 51.12591 | 13.76705 | 751 ft | 5 kts | 219° |
| 2026-05-07 19:25 | 51.12570 | 13.76677 | 748 ft | 2 kts | 220° |
| 2026-05-07 19:25 | 51.12568 | 13.76674 | 748 ft | 0 kts | 220° |